createdAt,value
2019-02-28T00:01:12.856Z,53.10
2019-02-28T00:03:39.483Z,54.20
2019-02-28T00:06:06.228Z,54.80
2019-02-28T00:08:32.948Z,54.20
2019-02-28T00:11:01.980Z,54.70
2019-02-28T00:13:28.125Z,55.20
2019-02-28T00:15:54.829Z,55.30
2019-02-28T00:18:21.465Z,55.60
2019-02-28T00:20:48.160Z,55.60
2019-02-28T00:23:14.842Z,55.90
2019-02-28T00:25:41.584Z,56.50
2019-02-28T00:28:08.253Z,55.80
2019-02-28T00:30:40.432Z,56.20
2019-02-28T00:33:03.547Z,55.70
2019-02-28T00:35:30.168Z,56.50
2019-02-28T00:37:57.441Z,55.80
2019-02-28T00:40:24.186Z,56.50
2019-02-28T00:42:51.493Z,57.00
2019-02-28T00:45:19.194Z,58.30
2019-02-28T00:47:47.550Z,58.80
2019-02-28T00:50:14.343Z,59.50
2019-02-28T00:52:42.195Z,59.80
2019-02-28T00:55:10.876Z,60.40
2019-02-28T00:57:37.498Z,61.20
2019-02-28T01:00:10.126Z,61.50
2019-02-28T01:02:36.729Z,62.40
2019-02-28T01:05:06.017Z,60.80
2019-02-28T01:07:32.959Z,62.20
2019-02-28T01:10:01.431Z,62.60
2019-02-28T01:12:28.084Z,61.50
2019-02-28T01:14:54.768Z,62.30
2019-02-28T01:17:24.048Z,63.30
2019-02-28T01:19:50.424Z,63.20
2019-02-28T01:22:17.068Z,64.10
2019-02-28T01:24:45.183Z,63.20
2019-02-28T01:27:11.893Z,63.20
2019-02-28T01:29:38.532Z,63.80
2019-02-28T01:32:05.209Z,63.30
2019-02-28T01:34:32.330Z,63.00
2019-02-28T01:36:59.805Z,63.20
2019-02-28T01:39:29.928Z,63.10
2019-02-28T01:41:55.281Z,63.90
2019-02-28T01:44:23.254Z,63.90
2019-02-28T01:46:49.841Z,64.60
2019-02-28T01:49:18.545Z,65.50
2019-02-28T01:51:45.157Z,65.50
2019-02-28T01:54:12.157Z,65.00
2019-02-28T01:56:38.778Z,65.30
2019-02-28T01:59:05.549Z,65.50
2019-02-28T02:01:32.177Z,66.70
2019-02-28T02:03:58.817Z,66.10
2019-02-28T02:06:26.422Z,66.40
2019-02-28T02:08:53.230Z,67.00
2019-02-28T02:11:20.050Z,67.80
2019-02-28T02:13:46.696Z,67.50
2019-02-28T02:16:13.361Z,66.40
2019-02-28T02:18:40.259Z,66.80
2019-02-28T02:21:08.598Z,66.70
2019-02-28T02:23:35.259Z,66.50
2019-02-28T02:26:01.941Z,66.20
2019-02-28T02:28:28.902Z,66.80
2019-02-28T02:30:55.496Z,66.90
2019-02-28T02:33:22.319Z,67.00
2019-02-28T02:35:49.769Z,67.90
2019-02-28T02:38:16.476Z,69.50
2019-02-28T02:40:43.098Z,68.90
2019-02-28T02:43:09.855Z,68.00
2019-02-28T02:45:41.801Z,68.40
2019-02-28T02:48:05.528Z,68.30
2019-02-28T02:50:35.930Z,70.40
2019-02-28T02:53:05.378Z,70.20
2019-02-28T02:55:30.342Z,70.30
2019-02-28T02:57:57.067Z,69.90
2019-02-28T03:00:23.790Z,69.10
2019-02-28T03:02:50.470Z,69.10
2019-02-28T03:05:17.086Z,69.00
2019-02-28T03:07:43.763Z,69.20
2019-02-28T03:10:19.747Z,70.80
2019-02-28T03:12:47.022Z,70.40
2019-02-28T03:15:24.854Z,70.90
2019-02-28T03:17:47.190Z,71.20
2019-02-28T03:20:14.779Z,70.50
2019-02-28T03:22:41.401Z,70.10
2019-02-28T03:25:12.710Z,70.70
2019-02-28T03:27:39.549Z,70.70
2019-02-28T03:30:09.647Z,71.00
2019-02-28T03:32:42.188Z,71.80
2019-02-28T03:35:05.963Z,71.40
2019-02-28T03:37:33.365Z,70.50
2019-02-28T03:40:04.479Z,70.80
2019-02-28T03:42:30.102Z,72.00
2019-02-28T03:44:58.096Z,71.90
2019-02-28T03:47:24.932Z,72.60
2019-02-28T03:49:51.549Z,71.20
2019-02-28T03:52:18.236Z,70.20
2019-02-28T03:54:44.979Z,71.20
2019-02-28T03:57:13.137Z,71.10
2019-02-28T03:59:39.773Z,71.10
2019-02-28T04:02:06.546Z,71.30
2019-02-28T04:04:33.234Z,71.00
2019-02-28T04:07:00.827Z,70.20
2019-02-28T04:09:27.430Z,68.70
2019-02-28T04:11:54.048Z,68.00
2019-02-28T04:14:20.790Z,68.40
2019-02-28T04:16:52.413Z,68.90
2019-02-28T04:19:21.246Z,69.20
2019-02-28T04:21:46.814Z,69.10
2019-02-28T04:24:14.044Z,70.60
2019-02-28T04:26:40.969Z,72.30
2019-02-28T04:29:07.617Z,71.70
2019-02-28T04:31:34.273Z,71.00
2019-02-28T04:34:00.903Z,72.30
2019-02-28T04:36:27.557Z,70.80
2019-02-28T04:38:54.296Z,70.20
2019-02-28T04:41:22.313Z,71.10
2019-02-28T04:43:48.959Z,72.00
2019-02-28T04:46:15.624Z,72.50
2019-02-28T04:48:45.614Z,72.20
2019-02-28T04:51:11.291Z,72.10
2019-02-28T04:53:37.971Z,73.10
2019-02-28T04:56:04.605Z,72.90
2019-02-28T04:58:31.240Z,72.50
2019-02-28T05:00:57.914Z,72.00
2019-02-28T05:03:27.935Z,74.60
2019-02-28T05:05:53.024Z,76.40
2019-02-28T05:08:19.709Z,74.90
2019-02-28T05:10:46.339Z,74.00
2019-02-28T05:13:14.363Z,74.40
2019-02-28T05:15:41.578Z,73.70
2019-02-28T05:18:08.223Z,73.60
2019-02-28T05:20:34.921Z,73.30
2019-02-28T05:23:02.589Z,74.40
2019-02-28T05:25:29.590Z,75.80
2019-02-28T05:27:56.355Z,75.70
2019-02-28T05:30:23.007Z,75.60
2019-02-28T05:32:49.659Z,77.20
2019-02-28T05:35:16.366Z,77.20
2019-02-28T05:37:46.668Z,76.50
2019-02-28T05:40:13.048Z,76.00
2019-02-28T05:42:39.706Z,75.20
2019-02-28T05:45:07.843Z,74.50
2019-02-28T05:47:42.484Z,74.10
2019-02-28T05:50:03.870Z,76.00
2019-02-28T05:52:33.665Z,76.50
2019-02-28T05:54:59.014Z,75.90
2019-02-28T05:57:25.666Z,75.10
2019-02-28T05:59:52.301Z,75.40
2019-02-28T06:02:22.517Z,76.40
2019-02-28T06:04:47.527Z,76.30
2019-02-28T06:07:14.189Z,76.10
2019-02-28T06:09:40.863Z,75.80
2019-02-28T06:12:09.552Z,75.50
2019-02-28T06:14:36.073Z,76.00
2019-02-28T06:17:02.700Z,76.80
2019-02-28T06:19:29.989Z,76.50
2019-02-28T06:21:59.475Z,75.20
2019-02-28T06:24:26.118Z,75.30
2019-02-28T06:26:53.024Z,75.10
2019-02-28T06:29:19.580Z,75.70
2019-02-28T06:31:48.672Z,74.70
2019-02-28T06:34:14.776Z,76.80
2019-02-28T06:36:41.464Z,76.10
2019-02-28T06:39:08.398Z,76.60
2019-02-28T06:41:35.051Z,76.30
2019-02-28T06:44:03.173Z,75.20
2019-02-28T06:46:29.833Z,76.00
2019-02-28T06:49:01.509Z,75.20
2019-02-28T06:51:24.913Z,74.60
2019-02-28T06:53:51.596Z,74.90
2019-02-28T06:56:22.092Z,75.30
2019-02-28T06:58:46.780Z,77.90
2019-02-28T07:01:13.393Z,76.80
2019-02-28T07:03:40.082Z,77.70
2019-02-28T07:06:06.710Z,77.90
2019-02-28T07:08:33.393Z,76.20
2019-02-28T07:11:00.088Z,76.60
2019-02-28T07:13:26.745Z,75.20
2019-02-28T07:15:55.551Z,70.30
2019-02-28T07:18:22.120Z,68.50
2019-02-28T07:20:48.861Z,71.30
2019-02-28T07:23:15.504Z,73.80
2019-02-28T07:25:44.304Z,75.20
2019-02-28T07:28:10.699Z,74.10
2019-02-28T07:30:37.389Z,74.00
2019-02-28T07:33:09.530Z,72.90
2019-02-28T07:35:34.183Z,73.00
2019-02-28T07:38:00.914Z,73.60
2019-02-28T07:40:27.523Z,72.70
2019-02-28T07:42:54.188Z,72.90
2019-02-28T07:45:20.816Z,72.30
2019-02-28T07:47:51.641Z,72.60
2019-02-28T07:50:16.018Z,72.20
2019-02-28T07:52:43.863Z,71.90
2019-02-28T07:55:17.032Z,71.00
2019-02-28T07:57:43.652Z,70.70
2019-02-28T08:00:18.141Z,72.30
2019-02-28T08:02:42.322Z,72.00
2019-02-28T08:05:11.425Z,71.80
2019-02-28T08:07:38.088Z,71.70
2019-02-28T08:10:15.993Z,70.40
2019-02-28T08:12:42.380Z,70.80
2019-02-28T08:15:14.732Z,69.00
2019-02-28T08:17:43.899Z,70.20
2019-02-28T08:20:09.868Z,70.00
2019-02-28T08:22:36.821Z,70.70
2019-02-28T08:25:07.999Z,70.70
2019-02-28T08:27:35.432Z,70.80
2019-02-28T08:30:02.081Z,69.50
2019-02-28T08:32:28.745Z,69.10
2019-02-28T08:34:58.679Z,69.10
2019-02-28T08:37:23.863Z,67.70
2019-02-28T08:39:50.545Z,68.00
2019-02-28T08:42:17.209Z,69.40
2019-02-28T08:44:43.900Z,68.80
2019-02-28T08:47:10.537Z,69.00
2019-02-28T08:49:42.166Z,70.00
2019-02-28T08:52:06.712Z,70.50
2019-02-28T08:54:33.630Z,70.50
2019-02-28T08:57:00.302Z,69.70
2019-02-28T08:59:26.927Z,69.20
2019-02-28T09:01:53.603Z,68.20
2019-02-28T09:04:20.344Z,68.90
2019-02-28T09:06:46.989Z,69.20
2019-02-28T09:09:14.645Z,70.20
2019-02-28T09:11:41.516Z,70.50
2019-02-28T09:14:08.185Z,69.50
2019-02-28T09:16:36.739Z,68.50
2019-02-28T09:19:03.414Z,68.50
2019-02-28T09:21:30.108Z,69.10
2019-02-28T09:23:56.744Z,68.70
2019-02-28T09:26:23.460Z,69.60
2019-02-28T09:28:50.160Z,70.60
2019-02-28T09:31:16.785Z,70.60
2019-02-28T09:33:43.438Z,70.00
2019-02-28T09:36:10.109Z,70.00
2019-02-28T09:38:36.734Z,70.00
2019-02-28T09:41:04.517Z,70.50
2019-02-28T09:43:31.823Z,70.20
2019-02-28T09:45:58.449Z,70.30
2019-02-28T09:48:25.109Z,69.90
2019-02-28T09:50:57.753Z,70.20
2019-02-28T09:53:20.213Z,69.70
2019-02-28T09:55:46.843Z,69.70
2019-02-28T09:58:13.509Z,69.30
2019-02-28T10:00:43.173Z,69.80
2019-02-28T10:03:08.617Z,69.20
2019-02-28T10:05:38.738Z,69.60
2019-02-28T10:08:03.755Z,69.20
2019-02-28T10:10:31.513Z,68.40
2019-02-28T10:12:58.179Z,67.70
2019-02-28T10:15:25.246Z,67.40
2019-02-28T10:17:52.108Z,67.80
2019-02-28T10:20:27.347Z,67.70
2019-02-28T10:22:52.974Z,67.80
2019-02-28T10:25:19.638Z,67.30
2019-02-28T10:27:46.261Z,66.60
2019-02-28T10:30:31.669Z,66.50
2019-02-28T10:32:54.326Z,65.60
2019-02-28T10:35:20.993Z,65.90
2019-02-28T10:37:47.921Z,66.40
2019-02-28T10:40:23.400Z,67.00
2019-02-28T10:42:50.039Z,65.60
2019-02-28T10:45:16.660Z,65.20
2019-02-28T10:47:43.336Z,66.00
2019-02-28T10:50:15.220Z,66.10
2019-02-28T10:52:41.897Z,65.70
2019-02-28T10:55:10.821Z,66.80
2019-02-28T10:57:40.397Z,66.30
2019-02-28T11:00:09.599Z,65.80
2019-02-28T11:02:36.261Z,65.30
2019-02-28T11:05:03.272Z,66.50
2019-02-28T11:07:30.056Z,65.80
2019-02-28T11:09:58.817Z,66.40
2019-02-28T11:12:25.166Z,65.50
2019-02-28T11:14:51.932Z,65.40
2019-02-28T11:17:18.596Z,65.10
2019-02-28T11:19:45.255Z,65.10
2019-02-28T11:22:12.925Z,64.50
2019-02-28T11:24:39.688Z,65.00
2019-02-28T11:27:06.501Z,64.80
2019-02-28T11:29:35.152Z,65.10
2019-02-28T11:32:01.828Z,63.70
2019-02-28T11:34:28.525Z,64.00
2019-02-28T11:36:55.215Z,63.80
2019-02-28T11:39:22.030Z,64.10
2019-02-28T11:41:49.263Z,65.20
2019-02-28T11:44:17.132Z,65.50
2019-02-28T11:46:44.496Z,65.20
2019-02-28T11:49:11.132Z,64.20
2019-02-28T11:51:37.889Z,63.70
2019-02-28T11:54:04.541Z,64.20
2019-02-28T11:56:31.194Z,65.50
2019-02-28T11:58:57.805Z,64.50
2019-02-28T12:01:24.507Z,64.50
2019-02-28T12:03:51.125Z,64.70
2019-02-28T12:06:17.793Z,65.40
2019-02-28T12:08:45.090Z,65.80
2019-02-28T12:11:12.496Z,66.70
2019-02-28T12:13:39.148Z,65.50
2019-02-28T12:16:05.777Z,66.70
2019-02-28T12:18:32.439Z,65.60
2019-02-28T12:21:01.724Z,64.20
2019-02-28T12:23:27.617Z,64.30
2019-02-28T12:25:54.235Z,65.00
2019-02-28T12:28:20.891Z,64.20
2019-02-28T12:30:47.549Z,62.50
2019-02-28T12:33:15.480Z,61.80
2019-02-28T12:35:42.646Z,62.10
2019-02-28T12:38:09.339Z,61.30
2019-02-28T12:40:42.604Z,61.00
2019-02-28T12:43:13.286Z,59.90
2019-02-28T12:45:41.452Z,59.60
2019-02-28T12:48:08.049Z,59.30
2019-02-28T12:50:34.718Z,59.10
2019-02-28T12:53:01.355Z,57.50
2019-02-28T12:55:28.016Z,57.50
2019-02-28T12:57:54.761Z,57.40
2019-02-28T13:00:32.501Z,56.50
2019-02-28T13:02:59.147Z,57.50
2019-02-28T13:05:25.775Z,58.30
2019-02-28T13:07:52.443Z,57.80
2019-02-28T13:10:26.888Z,57.30
2019-02-28T13:12:49.854Z,56.80
2019-02-28T13:15:17.524Z,56.70
2019-02-28T13:17:44.193Z,56.90
2019-02-28T13:20:22.061Z,56.80
2019-02-28T13:22:48.777Z,57.40
2019-02-28T13:25:15.496Z,57.10
2019-02-28T13:27:45.272Z,58.30
2019-02-28T13:30:13.948Z,57.80
2019-02-28T13:32:40.611Z,57.80
2019-02-28T13:35:10.875Z,57.30
2019-02-28T13:37:40.691Z,57.80
2019-02-28T13:40:09.460Z,58.50
2019-02-28T13:42:40.913Z,58.50
2019-02-28T13:45:13.494Z,58.80
2019-02-28T13:47:36.466Z,59.00
2019-02-28T13:50:12.688Z,59.30
2019-02-28T13:52:39.314Z,59.60
2019-02-28T13:55:08.893Z,59.60
2019-02-28T13:57:35.552Z,59.90
2019-02-28T14:00:07.952Z,60.20
2019-02-28T14:02:33.628Z,59.30
2019-02-28T14:05:03.054Z,58.30
2019-02-28T14:07:30.216Z,58.50
2019-02-28T14:09:58.163Z,58.50
2019-02-28T14:12:25.003Z,58.30
2019-02-28T14:14:51.701Z,59.00
2019-02-28T14:17:18.379Z,59.40
2019-02-28T14:19:45.042Z,58.10
2019-02-28T14:22:12.358Z,57.60
2019-02-28T14:24:39.165Z,57.10
2019-02-28T14:27:05.833Z,56.90
2019-02-28T14:29:32.491Z,57.80
2019-02-28T14:31:59.248Z,58.50
2019-02-28T14:34:27.126Z,58.20
2019-02-28T14:36:53.815Z,58.20
2019-02-28T14:39:20.513Z,57.90
2019-02-28T14:41:47.211Z,57.60
2019-02-28T14:44:13.920Z,58.10
2019-02-28T14:46:40.564Z,58.10
2019-02-28T14:49:07.325Z,57.90
2019-02-28T14:51:33.953Z,58.30
2019-02-28T14:54:00.646Z,57.90
2019-02-28T14:56:27.268Z,57.80
2019-02-28T14:58:56.079Z,57.60
2019-02-28T15:01:22.485Z,57.90
2019-02-28T15:03:49.245Z,58.10
2019-02-28T15:06:15.881Z,57.60
2019-02-28T15:08:42.560Z,57.50
2019-02-28T15:11:10.207Z,57.90
2019-02-28T15:13:37.708Z,57.00
2019-02-28T15:16:04.380Z,57.10
2019-02-28T15:18:31.142Z,57.90
2019-02-28T15:20:57.834Z,57.00
2019-02-28T15:23:24.626Z,56.90
2019-02-28T15:25:54.213Z,56.60
2019-02-28T15:28:19.765Z,56.70
2019-02-28T15:30:46.437Z,56.90
2019-02-28T15:33:13.275Z,56.90
2019-02-28T15:35:39.947Z,56.30
2019-02-28T15:38:09.323Z,55.60
2019-02-28T15:40:40.838Z,55.10
2019-02-28T15:43:07.577Z,55.60
2019-02-28T15:45:36.197Z,55.40
2019-02-28T15:48:03.703Z,55.90
2019-02-28T15:50:30.441Z,55.70
2019-02-28T15:52:57.407Z,56.20
2019-02-28T15:55:24.589Z,56.30
2019-02-28T15:57:51.204Z,56.60
2019-02-28T16:00:22.260Z,56.30
2019-02-28T16:02:50.707Z,56.70
2019-02-28T16:05:17.541Z,56.50
2019-02-28T16:07:44.193Z,57.10
2019-02-28T16:10:23.885Z,57.20
2019-02-28T16:12:51.212Z,57.80
2019-02-28T16:15:18.181Z,57.80
2019-02-28T16:17:44.946Z,57.80
2019-02-28T16:20:13.100Z,58.40
2019-02-28T16:22:39.870Z,58.90
2019-02-28T16:25:24.994Z,59.20
2019-02-28T16:27:51.669Z,59.40
2019-02-28T16:30:18.308Z,59.50
2019-02-28T16:32:45.569Z,60.00
2019-02-28T16:35:14.728Z,60.20
2019-02-28T16:37:42.296Z,60.30
2019-02-28T16:40:15.340Z,61.00
2019-02-28T16:42:43.477Z,60.90
2019-02-28T16:45:15.156Z,60.80
2019-02-28T16:47:41.795Z,61.30
2019-02-28T16:50:09.984Z,61.60
2019-02-28T16:52:37.334Z,61.70
2019-02-28T16:55:07.023Z,62.00
2019-02-28T16:57:33.760Z,62.40
2019-02-28T17:00:03.867Z,62.70
2019-02-28T17:02:29.304Z,63.10
2019-02-28T17:04:56.728Z,63.10
2019-02-28T17:07:23.353Z,63.50
2019-02-28T17:09:50.077Z,63.30
2019-02-28T17:12:27.164Z,63.50
2019-02-28T17:14:52.765Z,63.90
2019-02-28T17:17:24.244Z,64.90
2019-02-28T17:19:50.911Z,65.40
2019-02-28T17:22:17.590Z,65.70
2019-02-28T17:24:46.150Z,66.30
2019-02-28T17:27:26.645Z,67.30
2019-02-28T17:29:57.610Z,67.50
2019-02-28T17:32:28.069Z,68.60
2019-02-28T17:34:52.896Z,68.20
2019-02-28T17:37:20.028Z,68.20
2019-02-28T17:39:51.165Z,68.60
2019-02-28T17:42:16.588Z,68.80
2019-02-28T17:44:49.412Z,69.10
2019-02-28T17:47:22.553Z,69.80
2019-02-28T17:50:09.436Z,69.70
2019-02-28T17:52:51.613Z,69.70
2019-02-28T17:55:26.834Z,70.30
2019-02-28T17:57:56.929Z,72.30
2019-02-28T18:00:30.033Z,76.40
2019-02-28T18:03:15.724Z,77.30
2019-02-28T18:06:03.748Z,80.40
2019-02-28T18:08:49.066Z,82.90
2019-02-28T18:11:26.605Z,83.10
2019-02-28T18:14:07.590Z,84.20
2019-02-28T18:17:04.896Z,85.90
2019-02-28T18:19:54.316Z,85.50
2019-02-28T18:22:24.009Z,85.90
2019-02-28T18:25:09.930Z,84.90
2019-02-28T18:27:40.445Z,85.00
2019-02-28T18:30:27.771Z,85.50
2019-02-28T18:32:54.502Z,85.50
2019-02-28T18:35:21.285Z,85.50
2019-02-28T18:37:47.942Z,86.90
2019-02-28T18:40:14.695Z,85.90
2019-02-28T18:42:41.644Z,86.60
2019-02-28T18:45:10.261Z,86.00
2019-02-28T18:47:39.713Z,84.50
2019-02-28T18:50:07.490Z,84.50
2019-02-28T18:52:34.563Z,85.50
2019-02-28T18:55:06.089Z,83.90
2019-02-28T18:57:29.633Z,83.50
2019-02-28T18:59:56.321Z,83.40
2019-02-28T19:02:22.956Z,82.90
2019-02-28T19:04:49.705Z,82.90
2019-02-28T19:07:16.381Z,82.10
2019-02-28T19:09:43.016Z,81.20
2019-02-28T19:12:09.722Z,81.70
2019-02-28T19:14:36.494Z,82.50
2019-02-28T19:17:03.393Z,81.60
2019-02-28T19:19:29.992Z,80.80
2019-02-28T19:21:56.672Z,80.70
2019-02-28T19:24:23.352Z,81.40
2019-02-28T19:26:50.132Z,81.30
2019-02-28T19:29:16.785Z,81.10
2019-02-28T19:31:43.444Z,81.50
2019-02-28T19:34:10.204Z,81.70
2019-02-28T19:36:36.855Z,81.30
2019-02-28T19:39:05.851Z,81.10
2019-02-28T19:41:32.509Z,81.20
2019-02-28T19:43:59.184Z,81.90
2019-02-28T19:46:25.825Z,81.30
2019-02-28T19:48:52.486Z,81.70
2019-02-28T19:51:19.131Z,81.20
2019-02-28T19:53:45.940Z,81.60
2019-02-28T19:56:12.684Z,83.10
2019-02-28T19:58:39.467Z,83.50
2019-02-28T20:01:06.212Z,83.00
2019-02-28T20:03:32.841Z,82.90
2019-02-28T20:06:00.459Z,82.50
2019-02-28T20:08:27.184Z,82.70
2019-02-28T20:10:53.925Z,82.80
2019-02-28T20:13:21.841Z,83.60
2019-02-28T20:15:48.703Z,83.30
2019-02-28T20:18:15.380Z,84.50
2019-02-28T20:20:43.312Z,84.60
2019-02-28T20:23:09.928Z,83.10
2019-02-28T20:25:36.612Z,83.10
2019-02-28T20:28:03.503Z,82.20
2019-02-28T20:30:30.140Z,82.10
2019-02-28T20:32:56.832Z,82.50
2019-02-28T20:35:26.545Z,83.00
2019-02-28T20:37:52.181Z,83.10
2019-02-28T20:40:36.109Z,82.70
2019-02-28T20:43:03.056Z,83.00
2019-02-28T20:45:29.720Z,82.50
2019-02-28T20:47:57.567Z,82.60
2019-02-28T20:50:36.680Z,82.20
2019-02-28T20:53:05.293Z,83.30
2019-02-28T20:55:31.787Z,83.90
2019-02-28T20:58:00.583Z,83.90
2019-02-28T21:00:28.446Z,83.90
2019-02-28T21:02:55.027Z,85.00
2019-02-28T21:05:21.689Z,85.20
2019-02-28T21:07:48.328Z,85.50
2019-02-28T21:10:15.002Z,86.20
2019-02-28T21:12:41.945Z,85.80
2019-02-28T21:15:10.782Z,84.90
2019-02-28T21:17:37.440Z,84.70
2019-02-28T21:20:12.411Z,85.70
2019-02-28T21:22:39.020Z,85.90
2019-02-28T21:25:09.140Z,85.90
2019-02-28T21:27:35.768Z,86.00
2019-02-28T21:30:05.306Z,86.40
2019-02-28T21:32:32.083Z,85.70
2019-02-28T21:34:58.831Z,87.00
2019-02-28T21:37:25.608Z,86.80
2019-02-28T21:39:52.486Z,87.00
2019-02-28T21:42:19.261Z,87.40
2019-02-28T21:44:45.953Z,86.70
2019-02-28T21:47:12.657Z,87.40
2019-02-28T21:49:39.460Z,87.60
2019-02-28T21:52:06.103Z,87.40
2019-02-28T21:54:32.761Z,87.80
2019-02-28T21:56:59.411Z,87.50
2019-02-28T21:59:26.096Z,86.80
2019-02-28T22:01:52.729Z,87.30
2019-02-28T22:04:19.456Z,87.50
2019-02-28T22:06:46.077Z,87.40
2019-02-28T22:09:13.902Z,87.30
2019-02-28T22:11:40.617Z,88.10
2019-02-28T22:14:07.302Z,87.70
2019-02-28T22:16:33.920Z,87.20
2019-02-28T22:19:00.708Z,86.80
2019-02-28T22:21:27.357Z,87.00
2019-02-28T22:23:54.007Z,86.80
2019-02-28T22:26:20.721Z,87.50
2019-02-28T22:28:47.366Z,87.50
2019-02-28T22:31:25.340Z,88.20
2019-02-28T22:33:56.431Z,88.30
2019-02-28T22:36:30.629Z,88.10
2019-02-28T22:39:03.378Z,88.10
2019-02-28T22:41:31.070Z,88.00
2019-02-28T22:43:57.717Z,88.00
2019-02-28T22:46:24.396Z,90.30
2019-02-28T22:48:51.026Z,89.80
2019-02-28T22:51:17.717Z,90.00
2019-02-28T22:53:44.362Z,91.30
2019-02-28T22:56:12.033Z,91.60
2019-02-28T22:58:38.780Z,91.20
2019-02-28T23:01:18.537Z,91.90
2019-02-28T23:03:45.168Z,92.00
2019-02-28T23:06:11.951Z,93.00
2019-02-28T23:08:38.610Z,93.10
2019-02-28T23:11:05.286Z,93.80
2019-02-28T23:13:31.963Z,94.70
2019-02-28T23:15:58.705Z,94.80
2019-02-28T23:18:25.369Z,95.40
2019-02-28T23:20:52.053Z,95.70
2019-02-28T23:23:18.718Z,95.80
2019-02-28T23:25:45.413Z,95.80
2019-02-28T23:28:15.088Z,95.60
2019-02-28T23:31:05.360Z,95.50
2019-02-28T23:33:32.105Z,96.40
2019-02-28T23:35:58.774Z,95.70
2019-02-28T23:38:25.463Z,96.00
2019-02-28T23:40:56.216Z,95.70
2019-02-28T23:43:22.888Z,95.40
2019-02-28T23:45:49.585Z,96.30
2019-02-28T23:48:16.245Z,96.70
2019-02-28T23:50:42.917Z,95.90
2019-02-28T23:53:09.601Z,95.80
2019-02-28T23:55:36.247Z,95.70
2019-02-28T23:58:03.035Z,95.90
